Time;durP1;ratioP1;P1;durP2;ratioP2;P2;SDS_P1;SDS_P2;PMS_P1;PMS_P2;Temp;Humidity;BMP_temperature;BMP_pressure;BME280_temperature;BME280_humidity;BME280_pressure;Samples;Min_cycle;Max_cycle;Signal;HPM_P1;HPM_P2
2022/03/21 00:02:05;;;;;;;32.88;19.42;;;;;;;;;;5114649;28;20089;-62
2022/03/21 00:04:31;;;;;;;37.60;21.08;;;;;;;;;;5114477;28;20128;-60
2022/03/21 00:06:57;;;;;;;35.33;19.90;;;;;;;;;;5114686;28;20116;-65
2022/03/21 00:09:22;;;;;;;41.42;20.30;;;;;;;;;;5114544;28;20051;-64
2022/03/21 00:11:50;;;;;;;38.38;20.13;;;;;;;;;;5114470;28;20036;-65
2022/03/21 00:14:15;;;;;;;34.05;18.40;;;;;;;;;;5114365;28;20477;-65
2022/03/21 00:16:41;;;;;;;30.25;17.38;;;;;;;;;;5114281;28;20080;-64
2022/03/21 00:19:07;;;;;;;27.30;16.95;;;;;;;;;;5113798;28;20389;-65
2022/03/21 00:21:35;;;;;;;31.75;16.92;;;;;;;;;;5114636;28;20118;-65
2022/03/21 00:24:00;;;;;;;32.17;18.45;;;;;;;;;;5114365;28;20040;-64
2022/03/21 00:26:26;;;;;;;30.00;18.33;;;;;;;;;;5114160;28;20039;-64
2022/03/21 00:28:52;;;;;;;93.22;34.97;;;;;;;;;;5114057;28;20028;-64
2022/03/21 00:31:18;;;;;;;88.43;36.78;;;;;;;;;;5114244;28;20058;-64
2022/03/21 00:33:44;;;;;;;79.18;35.47;;;;;;;;;;5095837;28;20038;-65
2022/03/21 00:36:10;;;;;;;71.88;32.08;;;;;;;;;;5113676;28;20040;-65
2022/03/21 00:38:39;;;;;;;42.28;23.73;;;;;;;;;;5114044;28;20039;-60
2022/03/21 00:41:05;;;;;;;28.80;17.83;;;;;;;;;;5096084;28;20050;-60
2022/03/21 00:43:30;;;;;;;28.17;16.75;;;;;;;;;;5113943;28;20040;-61
2022/03/21 00:45:57;;;;;;;52.83;23.27;;;;;;;;;;5113816;28;20033;-60
2022/03/21 00:48:23;;;;;;;59.45;26.55;;;;;;;;;;5113985;28;20039;-60
2022/03/21 00:50:49;;;;;;;47.63;23.40;;;;;;;;;;5095923;28;20365;-60
2022/03/21 00:53:16;;;;;;;44.70;23.38;;;;;;;;;;5079040;28;20473;-60
2022/03/21 00:55:41;;;;;;;50.28;23.50;;;;;;;;;;5113834;28;20030;-65
2022/03/21 00:58:07;;;;;;;47.58;23.48;;;;;;;;;;5095441;28;20043;-65
2022/03/21 01:00:32;;;;;;;44.63;23.38;;;;;;;;;;5113931;28;20032;-63
2022/03/21 01:02:59;;;;;;;45.25;23.17;;;;;;;;;;5113711;28;20511;-65
2022/03/21 01:05:24;;;;;;;41.55;23.02;;;;;;;;;;5113962;28;20047;-64
2022/03/21 01:07:50;;;;;;;39.42;22.27;;;;;;;;;;5113728;28;20044;-65
2022/03/21 01:10:16;;;;;;;33.67;19.40;;;;;;;;;;5078667;28;20465;-59
2022/03/21 01:12:42;;;;;;;31.30;18.30;;;;;;;;;;5115686;28;20030;-60
2022/03/21 01:15:09;;;;;;;58.65;29.48;;;;;;;;;;5117692;28;20027;-60
2022/03/21 01:17:35;;;;;;;43.90;24.00;;;;;;;;;;5099746;28;20040;-60
2022/03/21 01:20:01;;;;;;;39.28;21.00;;;;;;;;;;5117740;28;20032;-60
2022/03/21 01:22:26;;;;;;;34.40;20.35;;;;;;;;;;5117677;28;20043;-60
2022/03/21 01:24:52;;;;;;;33.42;18.98;;;;;;;;;;5099350;28;20481;-60
2022/03/21 01:27:17;;;;;;;38.50;21.67;;;;;;;;;;5117822;28;20469;-60
2022/03/21 01:29:42;;;;;;;36.42;20.13;;;;;;;;;;5117535;28;20437;-60
2022/03/21 01:32:08;;;;;;;35.67;18.15;;;;;;;;;;5117483;28;20085;-63
2022/03/21 01:34:33;;;;;;;32.83;19.30;;;;;;;;;;5117241;28;20063;-64
2022/03/21 01:36:59;;;;;;;33.92;18.50;;;;;;;;;;5117539;28;20040;-65
2022/03/21 01:39:24;;;;;;;33.33;19.23;;;;;;;;;;5117723;28;20489;-64
2022/03/21 01:41:49;;;;;;;40.53;21.13;;;;;;;;;;5117710;28;20038;-64
2022/03/21 01:44:17;;;;;;;37.00;20.50;;;;;;;;;;5117763;28;20031;-64
2022/03/21 01:46:44;;;;;;;32.30;17.60;;;;;;;;;;5117022;28;20039;-64
2022/03/21 01:49:10;;;;;;;53.13;24.40;;;;;;;;;;5117407;28;20058;-64
2022/03/21 01:51:36;;;;;;;41.42;20.23;;;;;;;;;;5117217;28;20039;-65
2022/03/21 01:56:47;;;;;;;29.15;17.80;;;;;;;;;;5117081;28;20116;-65
2022/03/21 01:59:14;;;;;;;39.35;20.33;;;;;;;;;;5117355;28;20040;-64
2022/03/21 02:01:41;;;;;;;56.67;26.33;;;;;;;;;;5098950;28;20071;-65
2022/03/21 02:04:06;;;;;;;40.05;21.83;;;;;;;;;;5082033;28;20016;-64
2022/03/21 02:06:32;;;;;;;39.15;22.00;;;;;;;;;;5116953;28;20119;-64
2022/03/21 02:09:00;;;;;;;29.45;19.70;;;;;;;;;;5116646;28;20051;-64
2022/03/21 02:11:26;;;;;;;42.33;25.85;;;;;;;;;;5098943;28;20047;-60
2022/03/21 02:13:53;;;;;;;34.92;21.45;;;;;;;;;;5116834;28;20168;-60
2022/03/21 02:16:19;;;;;;;41.53;23.08;;;;;;;;;;5117060;28;20031;-60
2022/03/21 02:18:45;;;;;;;35.88;21.95;;;;;;;;;;5116869;28;20477;-60
2022/03/21 02:21:15;;;;;;;33.90;18.75;;;;;;;;;;5116906;28;20071;-60
2022/03/21 02:23:48;;;;;;;31.05;18.50;;;;;;;;;;5115479;28;20059;-60
2022/03/21 02:26:14;;;;;;;35.45;18.90;;;;;;;;;;5116741;28;20085;-61
2022/03/21 02:28:40;;;;;;;34.58;19.15;;;;;;;;;;5116717;28;20020;-60
2022/03/21 02:31:06;;;;;;;32.60;18.77;;;;;;;;;;5116478;28;20067;-60
2022/03/21 02:33:31;;;;;;;31.65;17.25;;;;;;;;;;5116433;28;20114;-59
2022/03/21 02:35:57;;;;;;;35.25;18.75;;;;;;;;;;5078315;28;20040;-60
2022/03/21 02:38:24;;;;;;;32.80;19.95;;;;;;;;;;5075583;28;20041;-60
2022/03/21 02:40:50;;;;;;;35.10;20.02;;;;;;;;;;5075861;28;20078;-60
2022/03/21 02:43:15;;;;;;;35.63;21.40;;;;;;;;;;5074654;28;20039;-60
2022/03/21 02:45:41;;;;;;;36.50;21.08;;;;;;;;;;5075466;28;20033;-60
2022/03/21 02:48:07;;;;;;;34.35;19.48;;;;;;;;;;5075364;28;20021;-60
2022/03/21 02:50:39;;;;;;;34.47;20.05;;;;;;;;;;5075543;28;20040;-60
2022/03/21 02:53:06;;;;;;;38.08;20.48;;;;;;;;;;5075585;28;20051;-59
2022/03/21 02:55:32;;;;;;;32.40;19.50;;;;;;;;;;5074345;28;20064;-60
2022/03/21 02:57:57;;;;;;;36.33;19.02;;;;;;;;;;5075430;28;20101;-60
2022/03/21 03:00:23;;;;;;;31.85;19.00;;;;;;;;;;5075428;28;20120;-64
2022/03/21 03:02:49;;;;;;;41.85;23.10;;;;;;;;;;5075052;28;20040;-64
2022/03/21 03:05:15;;;;;;;34.58;19.88;;;;;;;;;;5075298;28;20028;-64
2022/03/21 03:07:41;;;;;;;42.42;24.55;;;;;;;;;;5075019;28;20033;-65
2022/03/21 03:10:07;;;;;;;39.33;21.95;;;;;;;;;;5075040;28;20043;-64
2022/03/21 03:12:32;;;;;;;47.75;22.63;;;;;;;;;;5075118;28;20044;-64
2022/03/21 03:14:58;;;;;;;61.28;29.83;;;;;;;;;;5075065;28;20028;-64
2022/03/21 03:17:24;;;;;;;64.82;30.45;;;;;;;;;;5074806;28;20355;-65
2022/03/21 03:19:49;;;;;;;47.83;25.30;;;;;;;;;;5075030;28;20027;-64
2022/03/21 03:22:15;;;;;;;43.13;24.02;;;;;;;;;;5074873;28;20075;-64
2022/03/21 03:24:41;;;;;;;42.80;22.30;;;;;;;;;;5073304;28;20362;-60
2022/03/21 03:27:07;;;;;;;39.92;20.98;;;;;;;;;;5074471;28;20064;-60
2022/03/21 03:29:47;;;;;;;37.65;20.42;;;;;;;;;;5074838;28;20067;-60
2022/03/21 03:32:13;;;;;;;;;;;;;;;;;;5075582;28;20032;-60
2022/03/21 03:34:39;;;;;;;39.90;19.77;;;;;;;;;;5084407;28;20399;-60
2022/03/21 03:37:04;;;;;;;31.58;18.35;;;;;;;;;;5115341;28;20346;-60
2022/03/21 03:39:30;;;;;;;33.05;19.42;;;;;;;;;;5115123;28;20035;-65
2022/03/21 03:41:55;;;;;;;35.33;20.65;;;;;;;;;;5114998;28;20565;-66
2022/03/21 03:44:22;;;;;;;40.15;20.27;;;;;;;;;;5115145;28;20016;-67
2022/03/21 03:46:49;;;;;;;36.05;19.30;;;;;;;;;;5114987;28;20043;-62
2022/03/21 03:49:14;;;;;;;32.10;19.15;;;;;;;;;;5115029;28;20447;-62
2022/03/21 03:52:17;;;;;;;30.70;18.05;;;;;;;;;;5096467;28;20088;-62
2022/03/21 03:54:42;;;;;;;31.30;17.08;;;;;;;;;;5114961;28;20546;-62
2022/03/21 03:57:10;;;;;;;28.02;16.63;;;;;;;;;;5114307;28;20024;-62
2022/03/21 03:59:36;;;;;;;25.40;15.68;;;;;;;;;;5096592;28;20383;-62
2022/03/21 04:02:01;;;;;;;26.73;15.60;;;;;;;;;;5114911;28;20077;-65
2022/03/21 04:04:27;;;;;;;26.02;15.95;;;;;;;;;;5114836;28;20478;-66
2022/03/21 04:06:53;;;;;;;28.20;16.23;;;;;;;;;;5079535;28;20035;-61
2022/03/21 04:09:18;;;;;;;26.95;16.95;;;;;;;;;;5114489;28;20138;-62
2022/03/21 04:11:44;;;;;;;29.77;16.77;;;;;;;;;;5114707;28;20028;-62
2022/03/21 04:14:09;;;;;;;28.88;16.35;;;;;;;;;;5096281;28;20035;-61
2022/03/21 04:16:36;;;;;;;24.83;16.17;;;;;;;;;;5096001;28;20066;-62
2022/03/21 04:19:02;;;;;;;29.55;16.70;;;;;;;;;;5114388;28;20122;-62
2022/03/21 04:21:27;;;;;;;27.30;16.13;;;;;;;;;;5114533;28;20119;-65
2022/03/21 04:23:53;;;;;;;29.15;17.08;;;;;;;;;;5114163;28;20032;-59
2022/03/21 04:26:19;;;;;;;31.98;17.88;;;;;;;;;;5095976;28;20043;-61
2022/03/21 04:28:45;;;;;;;29.65;17.17;;;;;;;;;;5114580;28;20035;-60
2022/03/21 04:31:10;;;;;;;28.00;18.60;;;;;;;;;;5114386;28;20019;-63
2022/03/21 04:33:36;;;;;;;28.00;17.13;;;;;;;;;;5114097;28;20489;-63
2022/03/21 04:36:01;;;;;;;29.23;17.88;;;;;;;;;;5113796;28;20478;-66
2022/03/21 04:38:27;;;;;;;28.83;19.35;;;;;;;;;;5113801;28;20082;-64
2022/03/21 04:40:52;;;;;;;31.58;18.77;;;;;;;;;;5113916;28;20043;-63
2022/03/21 04:43:19;;;;;;;28.27;19.60;;;;;;;;;;5114044;28;20032;-64
2022/03/21 04:45:45;;;;;;;26.08;18.50;;;;;;;;;;5113955;28;20031;-60
2022/03/21 04:48:11;;;;;;;30.15;19.13;;;;;;;;;;5112926;28;20036;-60
2022/03/21 04:50:37;;;;;;;30.27;19.75;;;;;;;;;;5113775;28;20162;-60
2022/03/21 04:53:03;;;;;;;30.60;20.35;;;;;;;;;;5113460;28;20043;-60
2022/03/21 04:55:28;;;;;;;27.67;18.40;;;;;;;;;;5113921;28;20031;-60
2022/03/21 04:57:54;;;;;;;30.02;18.73;;;;;;;;;;5114037;28;20057;-60
2022/03/21 05:00:19;;;;;;;27.40;19.27;;;;;;;;;;5095436;28;20469;-60
2022/03/21 05:03:17;;;;;;;28.25;18.48;;;;;;;;;;5114323;28;20047;-60
2022/03/21 05:05:43;;;;;;;29.95;18.98;;;;;;;;;;5113876;28;20039;-60
2022/03/21 05:08:08;;;;;;;26.50;18.08;;;;;;;;;;5113796;28;20043;-60
2022/03/21 05:10:35;;;;;;;27.67;18.13;;;;;;;;;;5113851;28;20050;-60
2022/03/21 05:13:01;;;;;;;27.85;19.10;;;;;;;;;;5113752;28;20489;-60
2022/03/21 05:15:26;;;;;;;26.35;17.80;;;;;;;;;;5112898;28;20034;-60
2022/03/21 05:17:52;;;;;;;26.73;18.95;;;;;;;;;;5094648;28;20032;-60
2022/03/21 05:20:18;;;;;;;26.90;18.60;;;;;;;;;;5113696;28;20490;-60
2022/03/21 05:22:44;;;;;;;27.65;18.25;;;;;;;;;;5114021;28;20047;-60
2022/03/21 05:30:57;;;;;;;26.33;17.70;;;;;;;;;;5108384;28;20051;-60
2022/03/21 05:36:08;;;;;;;28.50;18.02;;;;;;;;;;5112675;28;20035;-60
2022/03/21 05:38:33;;;;;;;29.67;18.05;;;;;;;;;;5113143;28;20511;-60
2022/03/21 05:41:00;;;;;;;29.63;18.55;;;;;;;;;;5113114;28;20110;-60
2022/03/21 05:43:26;;;;;;;32.40;20.13;;;;;;;;;;5113019;28;20038;-60
2022/03/21 05:45:52;;;;;;;30.55;18.55;;;;;;;;;;5112640;28;20039;-60
2022/03/21 05:51:01;;;;;;;33.75;18.95;;;;;;;;;;5113197;28;20062;-60
2022/03/21 05:53:27;;;;;;;48.25;27.20;;;;;;;;;;5112959;28;20031;-60
2022/03/21 05:55:52;;;;;;;32.72;18.38;;;;;;;;;;5112986;28;20043;-60
2022/03/21 05:58:18;;;;;;;30.58;17.92;;;;;;;;;;5114267;28;20430;-60
2022/03/21 06:00:43;;;;;;;33.22;20.52;;;;;;;;;;5116810;28;20032;-61
2022/03/21 06:03:09;;;;;;;35.72;19.45;;;;;;;;;;5116839;28;20107;-61
2022/03/21 06:05:35;;;;;;;33.75;21.27;;;;;;;;;;5116679;28;20505;-61
2022/03/21 06:08:01;;;;;;;33.10;23.27;;;;;;;;;;5116516;28;20362;-61
2022/03/21 06:10:26;;;;;;;41.25;26.25;;;;;;;;;;5116507;28;20040;-61
2022/03/21 06:12:53;;;;;;;48.22;34.15;;;;;;;;;;5116422;28;20023;-61
2022/03/21 06:15:19;;;;;;;43.38;29.85;;;;;;;;;;5116262;28;20047;-60
2022/03/21 06:17:44;;;;;;;45.45;33.78;;;;;;;;;;5116393;28;20039;-61
2022/03/21 06:20:14;;;;;;;39.75;24.83;;;;;;;;;;5116349;28;20398;-61
2022/03/21 06:22:40;;;;;;;31.43;18.97;;;;;;;;;;5116363;28;20027;-61
2022/03/21 06:25:06;;;;;;;33.97;20.50;;;;;;;;;;5116246;28;20600;-61
2022/03/21 06:27:35;;;;;;;36.17;24.23;;;;;;;;;;5116177;28;20065;-61
2022/03/21 06:30:04;;;;;;;29.88;18.50;;;;;;;;;;5097903;28;20024;-62
2022/03/21 06:32:30;;;;;;;32.78;20.83;;;;;;;;;;5116101;28;20032;-62
2022/03/21 06:34:55;;;;;;;41.78;29.00;;;;;;;;;;5115398;28;20536;-62
2022/03/21 06:37:21;;;;;;;38.20;25.98;;;;;;;;;;5115863;28;20416;-62
2022/03/21 06:39:46;;;;;;;32.80;22.70;;;;;;;;;;5115598;28;20046;-62
2022/03/21 06:42:14;;;;;;;36.60;23.30;;;;;;;;;;5097754;28;20687;-62
2022/03/21 06:44:40;;;;;;;38.80;26.38;;;;;;;;;;5115810;28;20126;-60
2022/03/21 06:47:06;;;;;;;35.25;24.85;;;;;;;;;;5097502;28;20128;-60
2022/03/21 06:49:31;;;;;;;34.25;21.25;;;;;;;;;;5115750;28;20138;-60
2022/03/21 06:51:57;;;;;;;26.00;17.17;;;;;;;;;;5115652;28;20035;-60
2022/03/21 06:54:22;;;;;;;28.20;19.13;;;;;;;;;;5115656;28;20059;-59
2022/03/21 06:56:48;;;;;;;35.75;17.58;;;;;;;;;;5115572;28;20118;-60
2022/03/21 06:59:13;;;;;;;26.05;15.95;;;;;;;;;;5115560;28;20358;-60
2022/03/21 07:01:38;;;;;;;32.28;16.65;;;;;;;;;;5115414;28;20067;-60
2022/03/21 07:04:04;;;;;;;31.48;18.67;;;;;;;;;;5115444;28;20047;-60
2022/03/21 07:06:30;;;;;;;27.95;16.10;;;;;;;;;;5115447;28;20039;-60
2022/03/21 07:08:56;;;;;;;40.28;22.48;;;;;;;;;;5115725;28;20107;-60
2022/03/21 07:11:22;;;;;;;21.88;15.10;;;;;;;;;;5114748;28;20035;-60
2022/03/21 07:13:47;;;;;;;26.33;16.98;;;;;;;;;;5096975;28;20073;-60
2022/03/21 07:16:16;;;;;;;33.60;18.73;;;;;;;;;;5115555;28;20035;-60
2022/03/21 07:18:45;;;;;;;23.08;14.48;;;;;;;;;;5115460;28;20043;-60
2022/03/21 07:21:11;;;;;;;22.55;13.75;;;;;;;;;;5097085;28;20114;-60
2022/03/21 07:23:37;;;;;;;24.90;15.20;;;;;;;;;;5096924;28;20389;-60
2022/03/21 07:26:02;;;;;;;21.83;14.27;;;;;;;;;;5115223;28;20047;-60
2022/03/21 07:28:28;;;;;;;25.02;14.55;;;;;;;;;;5115059;28;20028;-60
2022/03/21 07:30:54;;;;;;;51.88;30.42;;;;;;;;;;5096726;28;20114;-60
2022/03/21 07:33:20;;;;;;;32.25;18.58;;;;;;;;;;5114799;28;20587;-60
2022/03/21 07:35:46;;;;;;;20.25;14.02;;;;;;;;;;5114459;28;20176;-60
2022/03/21 07:38:13;;;;;;;19.02;13.55;;;;;;;;;;5096577;28;20089;-60
2022/03/21 07:40:39;;;;;;;17.85;11.90;;;;;;;;;;5114735;28;20042;-60
2022/03/21 07:43:04;;;;;;;18.05;12.07;;;;;;;;;;5114751;28;20110;-60
2022/03/21 07:48:13;;;;;;;30.27;18.90;;;;;;;;;;5114753;28;20113;-60
2022/03/21 07:50:41;;;;;;;14.93;10.95;;;;;;;;;;5114465;28;20078;-60
2022/03/21 07:53:07;;;;;;;16.83;12.65;;;;;;;;;;5114527;28;20035;-60
2022/03/21 07:55:32;;;;;;;18.13;12.65;;;;;;;;;;5114389;28;20054;-60
2022/03/21 07:57:59;;;;;;;14.82;10.43;;;;;;;;;;5114365;28;20031;-60
2022/03/21 08:00:26;;;;;;;16.35;11.93;;;;;;;;;;5114452;28;20028;-60
2022/03/21 08:02:51;;;;;;;20.77;12.70;;;;;;;;;;5114297;28;20058;-60
2022/03/21 08:05:17;;;;;;;18.02;11.18;;;;;;;;;;5114391;28;20525;-60
2022/03/21 08:07:43;;;;;;;8.32;6.43;;;;;;;;;;5114230;28;20027;-60
2022/03/21 08:10:10;;;;;;;9.55;6.65;;;;;;;;;;5095980;28;20030;-60
2022/03/21 08:12:35;;;;;;;12.57;9.30;;;;;;;;;;5114115;28;20118;-60
2022/03/21 08:15:01;;;;;;;13.32;9.32;;;;;;;;;;5114081;28;20515;-60
2022/03/21 08:17:27;;;;;;;15.40;9.10;;;;;;;;;;5113876;28;20050;-60
2022/03/21 08:19:55;;;;;;;19.10;10.95;;;;;;;;;;5113920;28;20020;-60
2022/03/21 08:22:21;;;;;;;15.60;10.75;;;;;;;;;;5112957;28;20144;-60
2022/03/21 08:24:46;;;;;;;10.63;6.40;;;;;;;;;;5113960;28;20049;-60
2022/03/21 08:27:14;;;;;;;9.80;7.47;;;;;;;;;;5113861;28;20031;-59
2022/03/21 08:29:39;;;;;;;10.38;6.22;;;;;;;;;;5113646;28;20038;-60
2022/03/21 08:32:06;;;;;;;12.98;8.57;;;;;;;;;;5113828;28;20489;-59
2022/03/21 08:34:31;;;;;;;13.43;10.00;;;;;;;;;;5113326;28;20039;-60
2022/03/21 08:36:57;;;;;;;12.30;8.27;;;;;;;;;;5113832;28;20039;-59
2022/03/21 08:39:22;;;;;;;13.57;8.52;;;;;;;;;;5113765;28;20038;-59
2022/03/21 08:41:47;;;;;;;8.98;6.25;;;;;;;;;;5113831;28;20035;-59
2022/03/21 08:44:13;;;;;;;13.15;7.60;;;;;;;;;;5113774;28;20085;-59
2022/03/21 08:46:38;;;;;;;13.05;8.85;;;;;;;;;;5113780;28;20388;-59
2022/03/21 08:51:48;;;;;;;12.95;8.82;;;;;;;;;;5095468;28;20096;-59
2022/03/21 08:54:14;;;;;;;11.57;8.20;;;;;;;;;;5113558;28;20036;-59
2022/03/21 08:56:39;;;;;;;13.35;9.73;;;;;;;;;;5113388;28;20126;-59
2022/03/21 08:59:05;;;;;;;10.48;8.05;;;;;;;;;;5113480;28;20370;-59
2022/03/21 09:01:31;;;;;;;12.73;8.35;;;;;;;;;;5113643;28;20028;-59
2022/03/21 09:03:59;;;;;;;10.57;8.02;;;;;;;;;;5113541;28;20110;-59
2022/03/21 09:06:24;;;;;;;9.13;6.88;;;;;;;;;;5113386;28;20099;-59
2022/03/21 09:08:50;;;;;;;8.98;7.03;;;;;;;;;;5113387;28;20118;-59
2022/03/21 09:11:17;;;;;;;12.05;8.10;;;;;;;;;;5113342;28;20127;-59
2022/03/21 09:13:44;;;;;;;13.88;9.05;;;;;;;;;;5113315;28;20343;-59
2022/03/21 09:16:09;;;;;;;11.68;9.43;;;;;;;;;;5095006;28;20058;-59
2022/03/21 09:18:34;;;;;;;13.63;8.48;;;;;;;;;;5113226;28;20477;-59
2022/03/21 09:21:01;;;;;;;10.60;8.02;;;;;;;;;;5094915;28;20058;-59
2022/03/21 09:23:26;;;;;;;8.20;6.07;;;;;;;;;;5113270;28;20108;-59
2022/03/21 09:25:51;;;;;;;9.52;7.13;;;;;;;;;;5112808;28;20063;-60
2022/03/21 09:28:17;;;;;;;10.77;8.10;;;;;;;;;;5095189;28;20036;-59
2022/03/21 09:30:42;;;;;;;10.00;7.47;;;;;;;;;;5095034;28;20069;-59
2022/03/21 09:33:09;;;;;;;9.25;7.05;;;;;;;;;;5114025;28;20028;-59
2022/03/21 09:35:35;;;;;;;9.88;7.22;;;;;;;;;;5116853;28;20039;-59
2022/03/21 09:38:02;;;;;;;8.30;6.75;;;;;;;;;;5117273;28;20035;-59
2022/03/21 09:40:28;;;;;;;6.75;5.40;;;;;;;;;;5099037;28;20039;-59
2022/03/21 09:42:53;;;;;;;9.68;7.55;;;;;;;;;;5117017;28;20076;-59
2022/03/21 09:45:19;;;;;;;10.40;8.55;;;;;;;;;;5117012;28;20032;-59
2022/03/21 09:50:33;;;;;;;9.55;6.10;;;;;;;;;;5117026;28;20147;-65
2022/03/21 09:53:00;;;;;;;7.05;5.18;;;;;;;;;;5116916;28;20389;-61
2022/03/21 09:55:25;;;;;;;7.88;5.97;;;;;;;;;;5116675;28;20023;-61
2022/03/21 09:57:50;;;;;;;7.15;6.45;;;;;;;;;;5116781;28;20032;-61
2022/03/21 10:00:16;;;;;;;6.75;5.82;;;;;;;;;;5116640;28;20059;-69
2022/03/21 10:02:42;;;;;;;9.00;6.75;;;;;;;;;;5098582;28;20043;-61
2022/03/21 10:05:28;;;;;;;10.40;8.00;;;;;;;;;;5116703;28;20038;-61
2022/03/21 10:07:53;;;;;;;8.40;6.80;;;;;;;;;;5116674;28;20436;-61
2022/03/21 10:10:18;;;;;;;8.50;7.20;;;;;;;;;;5116593;28;20089;-61
2022/03/21 10:12:44;;;;;;;7.68;6.00;;;;;;;;;;5116410;28;20039;-61
2022/03/21 10:15:10;;;;;;;9.75;6.35;;;;;;;;;;5116126;28;20100;-63
2022/03/21 10:17:36;;;;;;;9.43;6.57;;;;;;;;;;5116507;28;20035;-67
2022/03/21 10:20:03;;;;;;;10.75;7.90;;;;;;;;;;5116310;28;20034;-65
2022/03/21 10:22:37;;;;;;;9.30;6.70;;;;;;;;;;5098740;28;20035;-66
2022/03/21 10:25:06;;;;;;;6.88;5.95;;;;;;;;;;5098489;28;20419;-67
2022/03/21 10:27:32;;;;;;;12.55;8.57;;;;;;;;;;5116620;28;20040;-67
2022/03/21 10:30:00;;;;;;;9.48;7.18;;;;;;;;;;5116222;28;20016;-67
2022/03/21 10:32:33;;;;;;;8.07;6.82;;;;;;;;;;5116088;28;20040;-67
2022/03/21 10:35:00;;;;;;;9.52;6.45;;;;;;;;;;5097521;28;20566;-68
2022/03/21 10:37:25;;;;;;;8.23;6.57;;;;;;;;;;5097682;28;20071;-68
2022/03/21 10:39:51;;;;;;;8.57;6.55;;;;;;;;;;5115860;28;20059;-68
2022/03/21 10:42:16;;;;;;;7.28;5.65;;;;;;;;;;5115959;28;20056;-68
2022/03/21 10:44:52;;;;;;;12.55;8.13;;;;;;;;;;5114749;28;20040;-63
2022/03/21 10:47:18;;;;;;;8.70;6.40;;;;;;;;;;5115746;28;20111;-62
2022/03/21 10:49:44;;;;;;;8.43;7.47;;;;;;;;;;5097536;28;20074;-62
2022/03/21 10:52:17;;;;;;;9.48;6.90;;;;;;;;;;5115644;28;20401;-65
2022/03/21 10:54:42;;;;;;;11.98;7.35;;;;;;;;;;5115838;28;20039;-62
2022/03/21 10:57:28;;;;;;;9.50;7.07;;;;;;;;;;5115507;28;20358;-63
2022/03/21 11:00:12;;;;;;;9.82;6.55;;;;;;;;;;5097483;28;20126;-63
2022/03/21 11:02:58;;;;;;;9.85;7.38;;;;;;;;;;5115435;28;20046;-62
2022/03/21 11:05:25;;;;;;;7.50;6.05;;;;;;;;;;5100958;28;20038;-62
2022/03/21 11:07:51;;;;;;;8.18;6.72;;;;;;;;;;5115455;28;20032;-62
2022/03/21 11:10:18;;;;;;;9.65;7.15;;;;;;;;;;5115190;28;20114;-63
2022/03/21 11:12:44;;;;;;;9.20;7.38;;;;;;;;;;5115068;28;20031;-63
2022/03/21 11:15:10;;;;;;;8.20;6.40;;;;;;;;;;5115289;28;20050;-64
2022/03/21 11:17:36;;;;;;;7.50;6.50;;;;;;;;;;5114997;28;20447;-65
2022/03/21 11:20:05;;;;;;;10.35;8.25;;;;;;;;;;5115103;28;20032;-65
2022/03/21 11:22:33;;;;;;;12.40;8.45;;;;;;;;;;5115031;28;20375;-65
2022/03/21 11:25:03;;;;;;;10.35;7.43;;;;;;;;;;5114975;28;20035;-65
2022/03/21 11:27:31;;;;;;;8.80;6.25;;;;;;;;;;5115282;28;20043;-63
2022/03/21 11:30:09;;;;;;;5.80;5.22;;;;;;;;;;5096596;28;20031;-64
2022/03/21 11:32:35;;;;;;;7.85;7.00;;;;;;;;;;5114605;28;20504;-64
2022/03/21 11:35:06;;;;;;;11.65;8.32;;;;;;;;;;5096133;28;20047;-64
2022/03/21 11:37:33;;;;;;;8.43;6.95;;;;;;;;;;5096628;28;20089;-64
2022/03/21 11:40:16;;;;;;;8.63;4.78;;;;;;;;;;5114762;28;20119;-64
2022/03/21 11:42:42;;;;;;;5.28;4.60;;;;;;;;;;5114666;28;20505;-64
2022/03/21 11:45:23;;;;;;;6.60;5.25;;;;;;;;;;5096311;28;20059;-64
2022/03/21 11:47:49;;;;;;;8.00;6.15;;;;;;;;;;5114376;28;20485;-64
2022/03/21 11:50:34;;;;;;;5.35;4.78;;;;;;;;;;5114516;28;20034;-64
2022/03/21 11:53:04;;;;;;;5.43;3.55;;;;;;;;;;5095904;28;20499;-64
2022/03/21 11:55:29;;;;;;;11.77;7.15;;;;;;;;;;5114020;28;20026;-64
2022/03/21 11:57:55;;;;;;;7.90;6.55;;;;;;;;;;5114189;28;20028;-64
2022/03/21 12:00:25;;;;;;;7.85;5.35;;;;;;;;;;5096121;28;20047;-64
2022/03/21 12:02:50;;;;;;;6.72;4.63;;;;;;;;;;5114360;28;20038;-64
2022/03/21 12:05:35;;;;;;;7.28;4.70;;;;;;;;;;5114258;28;20098;-64
2022/03/21 12:08:21;;;;;;;6.57;5.43;;;;;;;;;;5114049;28;20067;-64
2022/03/21 12:10:46;;;;;;;5.68;3.88;;;;;;;;;;5113984;28;20051;-64
2022/03/21 12:13:19;;;;;;;9.95;6.82;;;;;;;;;;5079051;28;20080;-64
2022/03/21 12:15:51;;;;;;;9.50;6.35;;;;;;;;;;5114109;28;20520;-64
2022/03/21 12:18:17;;;;;;;6.22;4.93;;;;;;;;;;5095639;28;20436;-65
2022/03/21 12:20:46;;;;;;;7.32;6.00;;;;;;;;;;5095727;28;20020;-64
2022/03/21 12:23:16;;;;;;;5.28;4.53;;;;;;;;;;5113981;28;20505;-64
2022/03/21 12:25:45;;;;;;;6.03;4.22;;;;;;;;;;5113940;28;20504;-64
2022/03/21 12:29:31;;;;;;;5.10;4.10;;;;;;;;;;5113909;28;20118;-64
2022/03/21 12:31:25;;;;;;;7.80;7.00;;;;;;;;;;5095599;28;20546;-64
2022/03/21 12:33:53;;;;;;;4.40;2.00;;;;;;;;;;5114291;28;20028;-64
2022/03/21 12:36:31;;;;;;;7.30;5.72;;;;;;;;;;5113921;28;20039;-64
2022/03/21 12:38:57;;;;;;;8.73;6.97;;;;;;;;;;5095785;28;20139;-63
2022/03/21 12:41:30;;;;;;;7.47;5.15;;;;;;;;;;5114063;28;20480;-66
2022/03/21 12:43:56;;;;;;;5.78;5.18;;;;;;;;;;5095651;28;20042;-64
2022/03/21 12:46:22;;;;;;;6.47;4.90;;;;;;;;;;5113532;28;20020;-64
2022/03/21 12:49:01;;;;;;;6.13;5.10;;;;;;;;;;5113555;28;20043;-64
2022/03/21 12:51:32;;;;;;;5.70;5.10;;;;;;;;;;5113600;28;20031;-64
2022/03/21 12:53:59;;;;;;;7.60;6.90;;;;;;;;;;5113651;28;20040;-64
2022/03/21 12:56:26;;;;;;;10.07;6.75;;;;;;;;;;5113432;28;20508;-64
2022/03/21 12:58:55;;;;;;;10.55;7.18;;;;;;;;;;5113475;28;20039;-64
2022/03/21 13:01:21;;;;;;;11.15;5.65;;;;;;;;;;5094782;28;20020;-64
2022/03/21 13:03:46;;;;;;;8.98;6.28;;;;;;;;;;5113716;28;20049;-64
2022/03/21 13:11:32;;;;;;;13.18;9.27;;;;;;;;;;5117772;28;20044;-64
2022/03/21 13:14:28;;;;;;;11.57;8.30;;;;;;;;;;5117467;28;20036;-64
2022/03/21 13:16:58;;;;;;;12.50;10.25;;;;;;;;;;5095989;28;20044;-64
2022/03/21 13:19:27;;;;;;;13.45;7.63;;;;;;;;;;5117678;28;20485;-69
2022/03/21 13:22:02;;;;;;;10.50;7.63;;;;;;;;;;5117493;28;20024;-69
2022/03/21 13:24:37;;;;;;;11.27;9.50;;;;;;;;;;5117503;28;20027;-69
2022/03/21 13:27:02;;;;;;;8.88;5.53;;;;;;;;;;5099025;28;20040;-69
2022/03/21 13:29:27;;;;;;;12.25;8.75;;;;;;;;;;5098910;28;20084;-69
2022/03/21 13:31:54;;;;;;;16.95;9.85;;;;;;;;;;5098896;28;20393;-69
2022/03/21 13:34:19;;;;;;;15.05;12.75;;;;;;;;;;5098388;28;20070;-69
2022/03/21 13:36:45;;;;;;;10.82;7.75;;;;;;;;;;5117017;28;20067;-69
2022/03/21 13:39:12;;;;;;;14.93;8.57;;;;;;;;;;5117154;28;20020;-69
2022/03/21 13:41:50;;;;;;;14.05;10.27;;;;;;;;;;5117086;28;20114;-69
2022/03/21 13:44:15;;;;;;;13.93;10.23;;;;;;;;;;5117025;28;20160;-69
2022/03/21 13:46:57;;;;;;;11.32;8.55;;;;;;;;;;5116796;28;20110;-69
2022/03/21 13:49:39;;;;;;;22.40;14.55;;;;;;;;;;5116880;28;20027;-69
2022/03/21 13:52:05;;;;;;;12.38;9.40;;;;;;;;;;5116963;28;20047;-69
2022/03/21 13:54:46;;;;;;;16.05;11.85;;;;;;;;;;5116894;28;20027;-69
2022/03/21 13:57:12;;;;;;;16.42;10.20;;;;;;;;;;5116393;28;20043;-69
2022/03/21 13:59:37;;;;;;;19.05;11.63;;;;;;;;;;5117112;28;20028;-69
2022/03/21 14:02:04;;;;;;;36.33;21.70;;;;;;;;;;5098450;28;20036;-69
2022/03/21 14:04:31;;;;;;;16.05;9.60;;;;;;;;;;5116682;28;20027;-69
2022/03/21 14:06:58;;;;;;;18.95;12.90;;;;;;;;;;5098405;28;20039;-69
2022/03/21 14:09:24;;;;;;;16.67;9.65;;;;;;;;;;5098559;28;20042;-69
2022/03/21 14:11:59;;;;;;;12.55;9.13;;;;;;;;;;5116858;28;20039;-69
2022/03/21 14:14:25;;;;;;;10.18;7.45;;;;;;;;;;5116406;28;20056;-69
2022/03/21 14:16:50;;;;;;;12.88;8.65;;;;;;;;;;5116451;28;20457;-70
2022/03/21 14:19:17;;;;;;;12.82;8.88;;;;;;;;;;5116439;28;20044;-69
2022/03/21 14:21:44;;;;;;;21.52;13.48;;;;;;;;;;5116707;28;20035;-69
2022/03/21 14:24:09;;;;;;;15.68;8.80;;;;;;;;;;5116478;28;20385;-69
2022/03/21 14:26:37;;;;;;;11.57;8.32;;;;;;;;;;5116633;28;20119;-69
2022/03/21 14:29:05;;;;;;;17.13;11.43;;;;;;;;;;5098152;28;20031;-69
2022/03/21 14:31:32;;;;;;;22.58;16.05;;;;;;;;;;5098536;28;20453;-69
2022/03/21 14:33:58;;;;;;;17.55;11.70;;;;;;;;;;5115796;28;20089;-69
2022/03/21 14:36:23;;;;;;;18.80;11.93;;;;;;;;;;5116179;28;20052;-69
2022/03/21 14:38:49;;;;;;;16.40;10.63;;;;;;;;;;5097940;28;20080;-69
2022/03/21 14:41:16;;;;;;;17.60;10.93;;;;;;;;;;5098063;28;20100;-69
2022/03/21 14:43:42;;;;;;;14.70;10.55;;;;;;;;;;5097169;28;20123;-69
2022/03/21 14:46:07;;;;;;;11.60;8.90;;;;;;;;;;5116404;28;20028;-69
2022/03/21 14:48:33;;;;;;;13.20;10.15;;;;;;;;;;5115685;28;20043;-69
2022/03/21 14:50:59;;;;;;;22.48;15.75;;;;;;;;;;5115654;28;20031;-69
2022/03/21 14:53:26;;;;;;;14.45;10.43;;;;;;;;;;5116076;28;20465;-69
2022/03/21 14:55:52;;;;;;;13.30;8.55;;;;;;;;;;5115514;28;20036;-69